sensor_id;sensor_type;location;lat;lon;timestamp;P1;durP1;ratioP1;P2;durP2;ratioP2
64031;SDS011;50278;47.796;11.968;2022-10-31T00:00:56;6.00;;;1.55;;
64031;SDS011;50278;47.796;11.968;2022-10-31T00:03:23;5.15;;;1.25;;
64031;SDS011;50278;47.796;11.968;2022-10-31T00:05:49;3.58;;;1.45;;
64031;SDS011;50278;47.796;11.968;2022-10-31T00:08:15;4.45;;;1.35;;
64031;SDS011;50278;47.796;11.968;2022-10-31T00:10:42;3.60;;;1.13;;
64031;SDS011;50278;47.796;11.968;2022-10-31T00:13:09;4.13;;;1.60;;
64031;SDS011;50278;47.796;11.968;2022-10-31T00:15:35;2.40;;;1.35;;
64031;SDS011;50278;47.796;11.968;2022-10-31T00:18:03;3.83;;;1.30;;
64031;SDS011;50278;47.796;11.968;2022-10-31T00:20:29;2.42;;;1.02;;
64031;SDS011;50278;47.796;11.968;2022-10-31T00:22:59;3.78;;;1.35;;
64031;SDS011;50278;47.796;11.968;2022-10-31T00:25:25;3.90;;;1.20;;
64031;SDS011;50278;47.796;11.968;2022-10-31T00:27:51;4.32;;;1.85;;
64031;SDS011;50278;47.796;11.968;2022-10-31T00:30:17;2.88;;;1.85;;
64031;SDS011;50278;47.796;11.968;2022-10-31T00:32:42;4.55;;;1.55;;
64031;SDS011;50278;47.796;11.968;2022-10-31T00:35:08;4.60;;;1.42;;
64031;SDS011;50278;47.796;11.968;2022-10-31T00:37:34;3.15;;;1.30;;
64031;SDS011;50278;47.796;11.968;2022-10-31T00:39:59;6.18;;;2.45;;
64031;SDS011;50278;47.796;11.968;2022-10-31T00:42:25;4.68;;;2.03;;
64031;SDS011;50278;47.796;11.968;2022-10-31T00:44:50;5.43;;;1.95;;
64031;SDS011;50278;47.796;11.968;2022-10-31T00:47:16;3.35;;;1.20;;
64031;SDS011;50278;47.796;11.968;2022-10-31T00:49:41;4.00;;;1.30;;
64031;SDS011;50278;47.796;11.968;2022-10-31T00:52:07;3.67;;;1.20;;
64031;SDS011;50278;47.796;11.968;2022-10-31T00:54:32;4.28;;;1.52;;
64031;SDS011;50278;47.796;11.968;2022-10-31T00:56:58;3.95;;;1.35;;
64031;SDS011;50278;47.796;11.968;2022-10-31T00:59:23;3.03;;;1.02;;
64031;SDS011;50278;47.796;11.968;2022-10-31T01:01:49;4.75;;;1.17;;
64031;SDS011;50278;47.796;11.968;2022-10-31T01:04:15;4.88;;;1.63;;
64031;SDS011;50278;47.796;11.968;2022-10-31T01:06:40;4.85;;;1.42;;
64031;SDS011;50278;47.796;11.968;2022-10-31T01:09:06;4.63;;;1.48;;
64031;SDS011;50278;47.796;11.968;2022-10-31T01:11:32;3.67;;;1.35;;
64031;SDS011;50278;47.796;11.968;2022-10-31T01:13:57;4.40;;;1.48;;
64031;SDS011;50278;47.796;11.968;2022-10-31T01:16:23;4.50;;;1.38;;
64031;SDS011;50278;47.796;11.968;2022-10-31T01:18:52;4.03;;;1.35;;
64031;SDS011;50278;47.796;11.968;2022-10-31T01:21:19;3.00;;;1.20;;
64031;SDS011;50278;47.796;11.968;2022-10-31T01:23:48;8.27;;;1.38;;
64031;SDS011;50278;47.796;11.968;2022-10-31T01:26:15;4.88;;;1.48;;
64031;SDS011;50278;47.796;11.968;2022-10-31T01:29:05;4.30;;;1.40;;
64031;SDS011;50278;47.796;11.968;2022-10-31T01:31:30;3.17;;;1.45;;
64031;SDS011;50278;47.796;11.968;2022-10-31T01:33:57;3.17;;;0.93;;
64031;SDS011;50278;47.796;11.968;2022-10-31T01:36:27;4.82;;;1.30;;
64031;SDS011;50278;47.796;11.968;2022-10-31T01:38:56;3.93;;;1.30;;
64031;SDS011;50278;47.796;11.968;2022-10-31T01:41:26;6.03;;;1.50;;
64031;SDS011;50278;47.796;11.968;2022-10-31T01:43:55;7.60;;;2.55;;
64031;SDS011;50278;47.796;11.968;2022-10-31T01:46:24;3.00;;;1.10;;
64031;SDS011;50278;47.796;11.968;2022-10-31T01:48:53;4.90;;;1.25;;
64031;SDS011;50278;47.796;11.968;2022-10-31T01:51:20;4.63;;;1.40;;
64031;SDS011;50278;47.796;11.968;2022-10-31T01:53:49;3.05;;;1.40;;
64031;SDS011;50278;47.796;11.968;2022-10-31T01:56:17;3.90;;;1.50;;
64031;SDS011;50278;47.796;11.968;2022-10-31T01:58:43;5.50;;;1.65;;
64031;SDS011;50278;47.796;11.968;2022-10-31T02:01:11;6.13;;;1.33;;
64031;SDS011;50278;47.796;11.968;2022-10-31T02:03:38;2.63;;;1.20;;
64031;SDS011;50278;47.796;11.968;2022-10-31T02:06:05;3.60;;;1.00;;
64031;SDS011;50278;47.796;11.968;2022-10-31T02:08:38;3.35;;;1.30;;
64031;SDS011;50278;47.796;11.968;2022-10-31T02:11:05;4.90;;;1.50;;
64031;SDS011;50278;47.796;11.968;2022-10-31T02:13:32;2.15;;;1.08;;
64031;SDS011;50278;47.796;11.968;2022-10-31T02:15:59;3.88;;;1.25;;
64031;SDS011;50278;47.796;11.968;2022-10-31T02:18:27;2.33;;;1.30;;
64031;SDS011;50278;47.796;11.968;2022-10-31T02:26:37;6.85;;;1.50;;
64031;SDS011;50278;47.796;11.968;2022-10-31T02:32:09;4.10;;;1.10;;
64031;SDS011;50278;47.796;11.968;2022-10-31T02:34:45;2.65;;;1.00;;
64031;SDS011;50278;47.796;11.968;2022-10-31T02:37:42;5.28;;;1.27;;
64031;SDS011;50278;47.796;11.968;2022-10-31T02:45:45;4.07;;;1.42;;
64031;SDS011;50278;47.796;11.968;2022-10-31T02:48:26;3.80;;;0.93;;
64031;SDS011;50278;47.796;11.968;2022-10-31T02:50:57;3.38;;;1.30;;
64031;SDS011;50278;47.796;11.968;2022-10-31T02:53:26;3.70;;;1.10;;
64031;SDS011;50278;47.796;11.968;2022-10-31T02:56:02;2.85;;;0.73;;
64031;SDS011;50278;47.796;11.968;2022-10-31T02:58:32;3.95;;;1.40;;
64031;SDS011;50278;47.796;11.968;2022-10-31T03:06:08;6.38;;;1.48;;
64031;SDS011;50278;47.796;11.968;2022-10-31T03:11:21;4.10;;;1.40;;
64031;SDS011;50278;47.796;11.968;2022-10-31T03:13:52;4.05;;;1.10;;
64031;SDS011;50278;47.796;11.968;2022-10-31T03:16:36;3.33;;;1.15;;
64031;SDS011;50278;47.796;11.968;2022-10-31T03:19:16;4.35;;;1.13;;
64031;SDS011;50278;47.796;11.968;2022-10-31T03:21:53;3.15;;;1.15;;
64031;SDS011;50278;47.796;11.968;2022-10-31T03:24:24;2.40;;;1.20;;
64031;SDS011;50278;47.796;11.968;2022-10-31T03:26:53;8.45;;;1.30;;
64031;SDS011;50278;47.796;11.968;2022-10-31T03:29:23;2.22;;;0.90;;
64031;SDS011;50278;47.796;11.968;2022-10-31T03:32:00;5.32;;;0.98;;
64031;SDS011;50278;47.796;11.968;2022-10-31T03:34:33;3.22;;;1.42;;
64031;SDS011;50278;47.796;11.968;2022-10-31T03:37:02;4.57;;;1.45;;
64031;SDS011;50278;47.796;11.968;2022-10-31T03:39:31;2.90;;;1.00;;
64031;SDS011;50278;47.796;11.968;2022-10-31T03:44:33;4.32;;;1.27;;
64031;SDS011;50278;47.796;11.968;2022-10-31T03:47:01;4.35;;;1.08;;
64031;SDS011;50278;47.796;11.968;2022-10-31T03:49:28;3.17;;;1.02;;
64031;SDS011;50278;47.796;11.968;2022-10-31T03:52:18;4.93;;;1.25;;
64031;SDS011;50278;47.796;11.968;2022-10-31T03:54:52;2.20;;;0.90;;
64031;SDS011;50278;47.796;11.968;2022-10-31T04:00:34;4.40;;;1.10;;
64031;SDS011;50278;47.796;11.968;2022-10-31T04:05:43;1.98;;;1.00;;
64031;SDS011;50278;47.796;11.968;2022-10-31T04:08:13;3.13;;;1.15;;
64031;SDS011;50278;47.796;11.968;2022-10-31T04:10:43;2.92;;;1.23;;
64031;SDS011;50278;47.796;11.968;2022-10-31T04:13:13;4.43;;;1.10;;
64031;SDS011;50278;47.796;11.968;2022-10-31T04:15:45;2.85;;;1.13;;
64031;SDS011;50278;47.796;11.968;2022-10-31T04:18:13;6.35;;;1.40;;
64031;SDS011;50278;47.796;11.968;2022-10-31T04:20:40;5.05;;;1.33;;
64031;SDS011;50278;47.796;11.968;2022-10-31T04:23:20;1.85;;;0.98;;
64031;SDS011;50278;47.796;11.968;2022-10-31T04:25:49;4.43;;;1.35;;
64031;SDS011;50278;47.796;11.968;2022-10-31T04:28:16;3.78;;;1.45;;
64031;SDS011;50278;47.796;11.968;2022-10-31T04:30:42;3.65;;;1.00;;
64031;SDS011;50278;47.796;11.968;2022-10-31T04:33:08;3.08;;;1.00;;
64031;SDS011;50278;47.796;11.968;2022-10-31T04:35:34;3.63;;;1.00;;
64031;SDS011;50278;47.796;11.968;2022-10-31T04:37:59;5.32;;;1.10;;
64031;SDS011;50278;47.796;11.968;2022-10-31T04:40:25;4.97;;;1.40;;
64031;SDS011;50278;47.796;11.968;2022-10-31T04:43:02;4.28;;;1.27;;
64031;SDS011;50278;47.796;11.968;2022-10-31T04:45:28;6.70;;;1.00;;
64031;SDS011;50278;47.796;11.968;2022-10-31T04:47:54;3.38;;;0.88;;
64031;SDS011;50278;47.796;11.968;2022-10-31T04:50:22;2.58;;;0.80;;
64031;SDS011;50278;47.796;11.968;2022-10-31T04:52:49;5.72;;;1.20;;
64031;SDS011;50278;47.796;11.968;2022-10-31T04:55:19;4.57;;;1.00;;
64031;SDS011;50278;47.796;11.968;2022-10-31T04:58:03;3.67;;;1.10;;
64031;SDS011;50278;47.796;11.968;2022-10-31T05:00:30;3.55;;;1.10;;
64031;SDS011;50278;47.796;11.968;2022-10-31T05:02:56;2.72;;;1.02;;
64031;SDS011;50278;47.796;11.968;2022-10-31T05:05:27;2.35;;;0.85;;
64031;SDS011;50278;47.796;11.968;2022-10-31T05:07:54;3.90;;;0.80;;
64031;SDS011;50278;47.796;11.968;2022-10-31T05:10:23;2.72;;;0.98;;
64031;SDS011;50278;47.796;11.968;2022-10-31T05:12:55;2.28;;;1.05;;
64031;SDS011;50278;47.796;11.968;2022-10-31T05:15:44;6.45;;;1.25;;
64031;SDS011;50278;47.796;11.968;2022-10-31T05:18:29;3.95;;;1.20;;
64031;SDS011;50278;47.796;11.968;2022-10-31T05:21:13;4.85;;;1.25;;
64031;SDS011;50278;47.796;11.968;2022-10-31T05:23:48;2.67;;;1.05;;
64031;SDS011;50278;47.796;11.968;2022-10-31T05:26:16;3.80;;;1.60;;
64031;SDS011;50278;47.796;11.968;2022-10-31T05:28:41;5.18;;;1.40;;
64031;SDS011;50278;47.796;11.968;2022-10-31T05:31:07;2.83;;;0.95;;
64031;SDS011;50278;47.796;11.968;2022-10-31T05:33:32;3.78;;;1.52;;
64031;SDS011;50278;47.796;11.968;2022-10-31T05:36:27;3.63;;;1.05;;
64031;SDS011;50278;47.796;11.968;2022-10-31T05:38:56;2.83;;;1.13;;
64031;SDS011;50278;47.796;11.968;2022-10-31T05:41:24;2.40;;;0.95;;
64031;SDS011;50278;47.796;11.968;2022-10-31T05:43:51;4.65;;;1.02;;
64031;SDS011;50278;47.796;11.968;2022-10-31T05:46:21;3.90;;;1.13;;
64031;SDS011;50278;47.796;11.968;2022-10-31T05:49:25;2.47;;;0.80;;
64031;SDS011;50278;47.796;11.968;2022-10-31T05:51:50;3.35;;;1.13;;
64031;SDS011;50278;47.796;11.968;2022-10-31T05:54:19;3.03;;;1.05;;
64031;SDS011;50278;47.796;11.968;2022-10-31T05:56:45;1.83;;;0.93;;
64031;SDS011;50278;47.796;11.968;2022-10-31T05:59:11;4.95;;;1.45;;
64031;SDS011;50278;47.796;11.968;2022-10-31T06:01:37;2.35;;;1.05;;
64031;SDS011;50278;47.796;11.968;2022-10-31T06:04:07;3.08;;;1.30;;
64031;SDS011;50278;47.796;11.968;2022-10-31T06:06:34;3.60;;;1.63;;
64031;SDS011;50278;47.796;11.968;2022-10-31T06:09:01;5.03;;;1.85;;
64031;SDS011;50278;47.796;11.968;2022-10-31T06:11:28;2.72;;;1.25;;
64031;SDS011;50278;47.796;11.968;2022-10-31T06:14:03;5.38;;;1.65;;
64031;SDS011;50278;47.796;11.968;2022-10-31T06:16:41;6.50;;;1.25;;
64031;SDS011;50278;47.796;11.968;2022-10-31T06:19:25;2.42;;;1.08;;
64031;SDS011;50278;47.796;11.968;2022-10-31T06:21:50;3.70;;;1.40;;
64031;SDS011;50278;47.796;11.968;2022-10-31T06:24:16;6.13;;;1.52;;
64031;SDS011;50278;47.796;11.968;2022-10-31T06:27:07;7.95;;;2.58;;
64031;SDS011;50278;47.796;11.968;2022-10-31T06:29:33;8.93;;;4.95;;
64031;SDS011;50278;47.796;11.968;2022-10-31T06:32:09;2.80;;;1.58;;
64031;SDS011;50278;47.796;11.968;2022-10-31T06:34:40;3.20;;;1.43;;
64031;SDS011;50278;47.796;11.968;2022-10-31T06:37:07;3.35;;;1.45;;
64031;SDS011;50278;47.796;11.968;2022-10-31T06:39:34;3.85;;;1.30;;
64031;SDS011;50278;47.796;11.968;2022-10-31T06:42:00;7.28;;;3.10;;
64031;SDS011;50278;47.796;11.968;2022-10-31T06:44:27;6.65;;;1.85;;
64031;SDS011;50278;47.796;11.968;2022-10-31T06:46:53;8.27;;;2.70;;
64031;SDS011;50278;47.796;11.968;2022-10-31T06:49:57;5.55;;;2.58;;
64031;SDS011;50278;47.796;11.968;2022-10-31T06:52:24;8.27;;;2.35;;
64031;SDS011;50278;47.796;11.968;2022-10-31T06:54:50;3.40;;;1.70;;
64031;SDS011;50278;47.796;11.968;2022-10-31T06:57:15;5.35;;;2.13;;
64031;SDS011;50278;47.796;11.968;2022-10-31T06:59:41;7.75;;;2.08;;
64031;SDS011;50278;47.796;11.968;2022-10-31T07:02:16;4.05;;;1.45;;
64031;SDS011;50278;47.796;11.968;2022-10-31T07:04:42;9.85;;;1.90;;
64031;SDS011;50278;47.796;11.968;2022-10-31T07:07:11;6.25;;;2.13;;
64031;SDS011;50278;47.796;11.968;2022-10-31T07:09:38;6.78;;;2.33;;
64031;SDS011;50278;47.796;11.968;2022-10-31T07:12:04;4.78;;;2.13;;
64031;SDS011;50278;47.796;11.968;2022-10-31T07:14:33;9.95;;;2.97;;
64031;SDS011;50278;47.796;11.968;2022-10-31T07:17:00;4.78;;;2.40;;
64031;SDS011;50278;47.796;11.968;2022-10-31T07:19:31;9.15;;;2.60;;
64031;SDS011;50278;47.796;11.968;2022-10-31T07:21:57;5.50;;;3.03;;
64031;SDS011;50278;47.796;11.968;2022-10-31T07:24:26;6.95;;;2.63;;
64031;SDS011;50278;47.796;11.968;2022-10-31T07:27:17;13.40;;;2.92;;
64031;SDS011;50278;47.796;11.968;2022-10-31T07:29:44;6.38;;;2.78;;
64031;SDS011;50278;47.796;11.968;2022-10-31T07:32:10;5.35;;;2.58;;
64031;SDS011;50278;47.796;11.968;2022-10-31T07:34:42;6.20;;;2.25;;
64031;SDS011;50278;47.796;11.968;2022-10-31T07:37:18;6.63;;;2.22;;
64031;SDS011;50278;47.796;11.968;2022-10-31T07:39:43;5.43;;;2.20;;
64031;SDS011;50278;47.796;11.968;2022-10-31T07:42:09;5.60;;;2.30;;
64031;SDS011;50278;47.796;11.968;2022-10-31T07:44:36;5.15;;;1.85;;
64031;SDS011;50278;47.796;11.968;2022-10-31T07:47:13;3.67;;;1.88;;
64031;SDS011;50278;47.796;11.968;2022-10-31T07:49:57;5.28;;;1.83;;
64031;SDS011;50278;47.796;11.968;2022-10-31T07:52:41;7.40;;;2.15;;
64031;SDS011;50278;47.796;11.968;2022-10-31T07:55:40;4.20;;;1.33;;
64031;SDS011;50278;47.796;11.968;2022-10-31T07:58:08;7.55;;;1.60;;
64031;SDS011;50278;47.796;11.968;2022-10-31T08:00:38;4.78;;;1.58;;
64031;SDS011;50278;47.796;11.968;2022-10-31T08:03:11;6.40;;;1.40;;
64031;SDS011;50278;47.796;11.968;2022-10-31T08:05:57;3.17;;;1.48;;
64031;SDS011;50278;47.796;11.968;2022-10-31T08:08:33;5.10;;;1.73;;
64031;SDS011;50278;47.796;11.968;2022-10-31T08:10:58;3.85;;;2.10;;
64031;SDS011;50278;47.796;11.968;2022-10-31T08:13:24;5.70;;;1.63;;
64031;SDS011;50278;47.796;11.968;2022-10-31T08:15:52;4.53;;;2.78;;
64031;SDS011;50278;47.796;11.968;2022-10-31T08:18:23;4.20;;;2.63;;
64031;SDS011;50278;47.796;11.968;2022-10-31T08:20:49;8.38;;;2.30;;
64031;SDS011;50278;47.796;11.968;2022-10-31T08:23:15;4.82;;;2.10;;
64031;SDS011;50278;47.796;11.968;2022-10-31T08:25:42;4.38;;;2.60;;
64031;SDS011;50278;47.796;11.968;2022-10-31T08:28:08;4.53;;;2.22;;
64031;SDS011;50278;47.796;11.968;2022-10-31T08:30:36;5.78;;;2.17;;
64031;SDS011;50278;47.796;11.968;2022-10-31T08:33:21;3.50;;;2.13;;
64031;SDS011;50278;47.796;11.968;2022-10-31T08:36:05;3.53;;;1.80;;
64031;SDS011;50278;47.796;11.968;2022-10-31T08:38:49;9.60;;;2.03;;
64031;SDS011;50278;47.796;11.968;2022-10-31T08:41:16;4.00;;;2.15;;
64031;SDS011;50278;47.796;11.968;2022-10-31T08:43:41;3.83;;;1.85;;
64031;SDS011;50278;47.796;11.968;2022-10-31T08:46:07;4.20;;;1.70;;
64031;SDS011;50278;47.796;11.968;2022-10-31T08:48:32;6.22;;;2.38;;
64031;SDS011;50278;47.796;11.968;2022-10-31T08:50:59;4.13;;;1.60;;
64031;SDS011;50278;47.796;11.968;2022-10-31T08:53:27;5.53;;;2.00;;
64031;SDS011;50278;47.796;11.968;2022-10-31T08:56:09;3.22;;;1.90;;
64031;SDS011;50278;47.796;11.968;2022-10-31T08:58:35;5.40;;;1.63;;
64031;SDS011;50278;47.796;11.968;2022-10-31T09:01:01;4.28;;;1.70;;
64031;SDS011;50278;47.796;11.968;2022-10-31T09:03:28;6.78;;;2.08;;
64031;SDS011;50278;47.796;11.968;2022-10-31T09:05:57;6.50;;;1.83;;
64031;SDS011;50278;47.796;11.968;2022-10-31T09:08:26;4.95;;;1.63;;
64031;SDS011;50278;47.796;11.968;2022-10-31T09:10:55;4.05;;;1.70;;
64031;SDS011;50278;47.796;11.968;2022-10-31T09:13:41;5.55;;;2.10;;
64031;SDS011;50278;47.796;11.968;2022-10-31T09:16:25;5.40;;;2.10;;
64031;SDS011;50278;47.796;11.968;2022-10-31T09:18:51;5.13;;;1.90;;
64031;SDS011;50278;47.796;11.968;2022-10-31T09:21:16;3.42;;;2.03;;
64031;SDS011;50278;47.796;11.968;2022-10-31T09:23:42;5.07;;;1.90;;
64031;SDS011;50278;47.796;11.968;2022-10-31T09:26:08;4.30;;;1.52;;
64031;SDS011;50278;47.796;11.968;2022-10-31T09:28:36;4.82;;;1.75;;
64031;SDS011;50278;47.796;11.968;2022-10-31T09:31:11;5.03;;;1.88;;
64031;SDS011;50278;47.796;11.968;2022-10-31T09:34:02;2.58;;;1.30;;
64031;SDS011;50278;47.796;11.968;2022-10-31T09:36:34;6.43;;;1.92;;
64031;SDS011;50278;47.796;11.968;2022-10-31T09:39:02;6.20;;;2.03;;
64031;SDS011;50278;47.796;11.968;2022-10-31T09:41:30;3.03;;;1.63;;
64031;SDS011;50278;47.796;11.968;2022-10-31T09:50:22;7.35;;;1.75;;
64031;SDS011;50278;47.796;11.968;2022-10-31T09:55:37;4.60;;;1.52;;
64031;SDS011;50278;47.796;11.968;2022-10-31T09:58:15;4.35;;;1.83;;
64031;SDS011;50278;47.796;11.968;2022-10-31T10:00:50;4.18;;;1.83;;
64031;SDS011;50278;47.796;11.968;2022-10-31T10:08:49;4.65;;;1.92;;
64031;SDS011;50278;47.796;11.968;2022-10-31T10:11:55;3.75;;;1.60;;
64031;SDS011;50278;47.796;11.968;2022-10-31T10:14:52;4.57;;;2.22;;
64031;SDS011;50278;47.796;11.968;2022-10-31T10:17:47;6.57;;;1.80;;
64031;SDS011;50278;47.796;11.968;2022-10-31T10:20:43;3.50;;;1.55;;
64031;SDS011;50278;47.796;11.968;2022-10-31T10:26:25;5.63;;;1.55;;
64031;SDS011;50278;47.796;11.968;2022-10-31T10:32:11;5.13;;;1.98;;
64031;SDS011;50278;47.796;11.968;2022-10-31T10:34:48;4.85;;;2.05;;
64031;SDS011;50278;47.796;11.968;2022-10-31T10:37:22;5.13;;;1.77;;
64031;SDS011;50278;47.796;11.968;2022-10-31T10:39:53;4.68;;;2.00;;
64031;SDS011;50278;47.796;11.968;2022-10-31T10:42:21;10.43;;;2.20;;
64031;SDS011;50278;47.796;11.968;2022-10-31T10:45:16;6.20;;;1.73;;
64031;SDS011;50278;47.796;11.968;2022-10-31T10:48:14;5.60;;;2.05;;
64031;SDS011;50278;47.796;11.968;2022-10-31T10:50:44;4.32;;;1.98;;
64031;SDS011;50278;47.796;11.968;2022-10-31T10:56:47;4.32;;;1.40;;
64031;SDS011;50278;47.796;11.968;2022-10-31T10:59:30;5.32;;;1.80;;
64031;SDS011;50278;47.796;11.968;2022-10-31T11:01:56;4.13;;;1.52;;
64031;SDS011;50278;47.796;11.968;2022-10-31T11:04:25;4.72;;;1.60;;
64031;SDS011;50278;47.796;11.968;2022-10-31T11:06:59;7.38;;;1.60;;
64031;SDS011;50278;47.796;11.968;2022-10-31T11:09:30;3.28;;;1.70;;
64031;SDS011;50278;47.796;11.968;2022-10-31T11:11:56;5.82;;;1.80;;
64031;SDS011;50278;47.796;11.968;2022-10-31T11:14:23;6.60;;;2.17;;
64031;SDS011;50278;47.796;11.968;2022-10-31T11:17:15;5.82;;;2.83;;
64031;SDS011;50278;47.796;11.968;2022-10-31T11:19:44;4.13;;;1.50;;
64031;SDS011;50278;47.796;11.968;2022-10-31T11:22:14;4.63;;;1.63;;
64031;SDS011;50278;47.796;11.968;2022-10-31T11:24:42;5.57;;;1.80;;
64031;SDS011;50278;47.796;11.968;2022-10-31T11:27:13;7.80;;;1.73;;
64031;SDS011;50278;47.796;11.968;2022-10-31T11:29:45;3.33;;;1.50;;
64031;SDS011;50278;47.796;11.968;2022-10-31T11:32:16;3.75;;;1.40;;
64031;SDS011;50278;47.796;11.968;2022-10-31T11:34:47;6.45;;;2.47;;
64031;SDS011;50278;47.796;11.968;2022-10-31T11:37:18;4.68;;;2.17;;
64031;SDS011;50278;47.796;11.968;2022-10-31T11:39:58;5.60;;;2.00;;
64031;SDS011;50278;47.796;11.968;2022-10-31T11:42:28;6.15;;;1.65;;
64031;SDS011;50278;47.796;11.968;2022-10-31T11:45:06;4.47;;;1.92;;
64031;SDS011;50278;47.796;11.968;2022-10-31T11:47:40;3.17;;;1.40;;
64031;SDS011;50278;47.796;11.968;2022-10-31T11:50:10;4.25;;;1.38;;
64031;SDS011;50278;47.796;11.968;2022-10-31T11:52:40;4.35;;;1.52;;
64031;SDS011;50278;47.796;11.968;2022-10-31T11:57:47;3.75;;;1.50;;
64031;SDS011;50278;47.796;11.968;2022-10-31T12:00:21;4.72;;;1.40;;
64031;SDS011;50278;47.796;11.968;2022-10-31T12:03:03;4.25;;;1.45;;
64031;SDS011;50278;47.796;11.968;2022-10-31T12:05:51;4.03;;;1.70;;
64031;SDS011;50278;47.796;11.968;2022-10-31T12:08:25;8.75;;;2.60;;
64031;SDS011;50278;47.796;11.968;2022-10-31T12:16:59;7.13;;;2.83;;
64031;SDS011;50278;47.796;11.968;2022-10-31T12:25:14;4.07;;;1.30;;
64031;SDS011;50278;47.796;11.968;2022-10-31T12:38:45;4.60;;;1.52;;
64031;SDS011;50278;47.796;11.968;2022-10-31T12:50:17;5.47;;;1.73;;
64031;SDS011;50278;47.796;11.968;2022-10-31T12:55:48;5.47;;;1.23;;
64031;SDS011;50278;47.796;11.968;2022-10-31T12:58:28;2.45;;;1.15;;
64031;SDS011;50278;47.796;11.968;2022-10-31T13:03:58;5.85;;;1.55;;
64031;SDS011;50278;47.796;11.968;2022-10-31T13:06:44;6.35;;;2.22;;
64031;SDS011;50278;47.796;11.968;2022-10-31T13:09:25;4.32;;;1.67;;
64031;SDS011;50278;47.796;11.968;2022-10-31T13:12:14;7.05;;;1.77;;
64031;SDS011;50278;47.796;11.968;2022-10-31T13:14:45;6.72;;;2.08;;
64031;SDS011;50278;47.796;11.968;2022-10-31T13:17:18;6.22;;;1.40;;
64031;SDS011;50278;47.796;11.968;2022-10-31T13:23:37;5.93;;;1.70;;
64031;SDS011;50278;47.796;11.968;2022-10-31T13:25:51;4.55;;;1.50;;
64031;SDS011;50278;47.796;11.968;2022-10-31T13:28:25;5.07;;;1.55;;
64031;SDS011;50278;47.796;11.968;2022-10-31T13:31:01;4.97;;;1.90;;
64031;SDS011;50278;47.796;11.968;2022-10-31T13:33:29;3.58;;;1.58;;
64031;SDS011;50278;47.796;11.968;2022-10-31T13:42:15;4.70;;;1.80;;
64031;SDS011;50278;47.796;11.968;2022-10-31T13:44:47;3.08;;;1.40;;
64031;SDS011;50278;47.796;11.968;2022-10-31T13:47:26;5.72;;;1.70;;
64031;SDS011;50278;47.796;11.968;2022-10-31T13:50:03;9.40;;;1.97;;
64031;SDS011;50278;47.796;11.968;2022-10-31T13:52:49;5.20;;;1.50;;
64031;SDS011;50278;47.796;11.968;2022-10-31T13:58:02;5.65;;;1.60;;
64031;SDS011;50278;47.796;11.968;2022-10-31T14:00:29;7.03;;;2.08;;
64031;SDS011;50278;47.796;11.968;2022-10-31T14:02:59;7.07;;;2.13;;
64031;SDS011;50278;47.796;11.968;2022-10-31T14:05:27;5.78;;;2.33;;
64031;SDS011;50278;47.796;11.968;2022-10-31T14:07:58;3.80;;;1.80;;
64031;SDS011;50278;47.796;11.968;2022-10-31T14:18:29;4.57;;;1.98;;
64031;SDS011;50278;47.796;11.968;2022-10-31T14:20:58;5.65;;;2.33;;
64031;SDS011;50278;47.796;11.968;2022-10-31T14:28:41;4.03;;;1.90;;
64031;SDS011;50278;47.796;11.968;2022-10-31T14:31:25;6.40;;;2.17;;
64031;SDS011;50278;47.796;11.968;2022-10-31T14:33:52;5.82;;;1.90;;
64031;SDS011;50278;47.796;11.968;2022-10-31T14:36:21;3.88;;;1.85;;
64031;SDS011;50278;47.796;11.968;2022-10-31T14:39:04;9.23;;;2.20;;
64031;SDS011;50278;47.796;11.968;2022-10-31T14:47:21;7.32;;;1.73;;
64031;SDS011;50278;47.796;11.968;2022-10-31T14:53:00;5.95;;;1.55;;
64031;SDS011;50278;47.796;11.968;2022-10-31T14:55:28;7.35;;;2.03;;
64031;SDS011;50278;47.796;11.968;2022-10-31T14:58:00;3.80;;;1.50;;
64031;SDS011;50278;47.796;11.968;2022-10-31T15:00:29;5.60;;;1.48;;
64031;SDS011;50278;47.796;11.968;2022-10-31T15:03:15;3.85;;;1.92;;
64031;SDS011;50278;47.796;11.968;2022-10-31T15:05:50;6.45;;;1.60;;
64031;SDS011;50278;47.796;11.968;2022-10-31T15:08:32;4.07;;;1.90;;
64031;SDS011;50278;47.796;11.968;2022-10-31T15:11:25;3.55;;;1.40;;
64031;SDS011;50278;47.796;11.968;2022-10-31T15:13:52;4.35;;;2.00;;
64031;SDS011;50278;47.796;11.968;2022-10-31T15:16:26;5.35;;;1.65;;
64031;SDS011;50278;47.796;11.968;2022-10-31T15:19:02;5.43;;;1.83;;
64031;SDS011;50278;47.796;11.968;2022-10-31T15:21:30;4.30;;;2.13;;
64031;SDS011;50278;47.796;11.968;2022-10-31T15:23:57;3.72;;;1.52;;
64031;SDS011;50278;47.796;11.968;2022-10-31T15:26:26;4.15;;;1.83;;
64031;SDS011;50278;47.796;11.968;2022-10-31T15:29:02;3.72;;;2.20;;
64031;SDS011;50278;47.796;11.968;2022-10-31T15:31:29;4.25;;;1.60;;
64031;SDS011;50278;47.796;11.968;2022-10-31T15:33:58;4.57;;;1.65;;
64031;SDS011;50278;47.796;11.968;2022-10-31T15:36:28;7.65;;;1.98;;
64031;SDS011;50278;47.796;11.968;2022-10-31T15:38:55;5.03;;;2.00;;
64031;SDS011;50278;47.796;11.968;2022-10-31T15:41:37;4.95;;;2.17;;
64031;SDS011;50278;47.796;11.968;2022-10-31T15:44:14;4.53;;;2.20;;
64031;SDS011;50278;47.796;11.968;2022-10-31T15:46:51;5.80;;;1.90;;
64031;SDS011;50278;47.796;11.968;2022-10-31T15:49:28;4.78;;;1.70;;
64031;SDS011;50278;47.796;11.968;2022-10-31T15:52:02;5.15;;;1.80;;
64031;SDS011;50278;47.796;11.968;2022-10-31T15:54:53;6.28;;;1.92;;
64031;SDS011;50278;47.796;11.968;2022-10-31T15:57:24;5.72;;;2.00;;
64031;SDS011;50278;47.796;11.968;2022-10-31T15:59:53;4.18;;;1.95;;
64031;SDS011;50278;47.796;11.968;2022-10-31T16:02:23;5.05;;;1.58;;
64031;SDS011;50278;47.796;11.968;2022-10-31T16:04:59;6.40;;;2.30;;
64031;SDS011;50278;47.796;11.968;2022-10-31T16:07:26;7.32;;;2.28;;
64031;SDS011;50278;47.796;11.968;2022-10-31T16:10:00;4.25;;;1.73;;
64031;SDS011;50278;47.796;11.968;2022-10-31T16:12:45;6.45;;;1.85;;
64031;SDS011;50278;47.796;11.968;2022-10-31T16:15:13;5.35;;;1.63;;
64031;SDS011;50278;47.796;11.968;2022-10-31T16:17:41;6.50;;;1.85;;
64031;SDS011;50278;47.796;11.968;2022-10-31T16:20:16;6.47;;;2.40;;
64031;SDS011;50278;47.796;11.968;2022-10-31T16:22:47;4.90;;;2.08;;
64031;SDS011;50278;47.796;11.968;2022-10-31T16:25:15;6.57;;;2.00;;
64031;SDS011;50278;47.796;11.968;2022-10-31T16:27:50;4.25;;;1.85;;
64031;SDS011;50278;47.796;11.968;2022-10-31T16:33:00;4.85;;;1.83;;
64031;SDS011;50278;47.796;11.968;2022-10-31T16:37:53;4.72;;;2.47;;
64031;SDS011;50278;47.796;11.968;2022-10-31T16:40:19;6.60;;;2.42;;
64031;SDS011;50278;47.796;11.968;2022-10-31T16:42:45;5.78;;;2.50;;
64031;SDS011;50278;47.796;11.968;2022-10-31T16:45:25;6.10;;;2.05;;
64031;SDS011;50278;47.796;11.968;2022-10-31T16:47:52;4.80;;;2.20;;
64031;SDS011;50278;47.796;11.968;2022-10-31T16:50:21;3.85;;;1.77;;
64031;SDS011;50278;47.796;11.968;2022-10-31T16:52:49;4.10;;;1.80;;
64031;SDS011;50278;47.796;11.968;2022-10-31T16:55:15;5.15;;;2.30;;
64031;SDS011;50278;47.796;11.968;2022-10-31T16:57:45;6.57;;;2.10;;
64031;SDS011;50278;47.796;11.968;2022-10-31T17:00:16;5.65;;;2.55;;
64031;SDS011;50278;47.796;11.968;2022-10-31T17:02:51;5.60;;;2.30;;
64031;SDS011;50278;47.796;11.968;2022-10-31T17:05:20;5.85;;;1.95;;
64031;SDS011;50278;47.796;11.968;2022-10-31T17:07:47;5.50;;;2.78;;
64031;SDS011;50278;47.796;11.968;2022-10-31T17:10:13;5.20;;;2.30;;
64031;SDS011;50278;47.796;11.968;2022-10-31T17:12:44;6.03;;;3.65;;
64031;SDS011;50278;47.796;11.968;2022-10-31T17:15:31;6.10;;;2.55;;